Time;durP1;ratioP1;P1;durP2;ratioP2;P2;SDS_P1;SDS_P2;PMS_P1;PMS_P2;Temp;Humidity;BMP_temperature;BMP_pressure;BME280_temperature;BME280_humidity;BME280_pressure;Samples;Min_cycle;Max_cycle;Signal;HPM_P1;HPM_P2
2024/02/13 00:00:59;;;;;;;12.73;10.70;;;;;;;;;;9927075;28;20050;-78
2024/02/13 00:05:54;;;;;;;13.85;11.18;;;;;;;;;;9943490;28;20517;-78
2024/02/13 00:10:46;;;;;;;11.35;10.15;;;;;;;;;;9943343;28;20466;-78
2024/02/13 00:15:38;;;;;;;11.05;9.90;;;;;;;;;;9941459;28;20050;-78
2024/02/13 00:20:31;;;;;;;11.93;10.57;;;;;;;;;;9943303;28;20055;-78
2024/02/13 00:25:23;;;;;;;16.35;11.68;;;;;;;;;;9942547;28;20660;-80
2024/02/13 00:30:15;;;;;;;8.90;8.00;;;;;;;;;;9941815;28;20061;-78
2024/02/13 00:35:08;;;;;;;11.32;9.30;;;;;;;;;;9942624;28;20055;-80
2024/02/13 00:40:02;;;;;;;10.50;9.50;;;;;;;;;;9942000;28;20046;-78
2024/02/13 00:44:54;;;;;;;11.68;9.52;;;;;;;;;;9941731;28;20102;-78
2024/02/13 00:49:46;;;;;;;16.10;8.80;;;;;;;;;;9942357;28;20043;-78
2024/02/13 00:54:38;;;;;;;9.80;8.45;;;;;;;;;;9941516;28;20043;-78
2024/02/13 00:59:30;;;;;;;12.52;9.23;;;;;;;;;;9941696;28;20054;-81
2024/02/13 01:04:22;;;;;;;24.45;14.30;;;;;;;;;;9941035;28;20129;-78
2024/02/13 01:09:14;;;;;;;12.13;10.85;;;;;;;;;;9941118;28;20489;-79
2024/02/13 01:14:07;;;;;;;14.20;10.55;;;;;;;;;;9941127;28;20055;-78
2024/02/13 01:19:00;;;;;;;12.52;9.85;;;;;;;;;;9929203;28;20067;-78
2024/02/13 01:23:52;;;;;;;9.77;8.77;;;;;;;;;;9903336;28;20098;-78
2024/02/13 01:28:47;;;;;;;10.68;9.52;;;;;;;;;;9888345;28;20063;-78
2024/02/13 01:33:40;;;;;;;9.98;9.00;;;;;;;;;;9905002;28;20381;-78
2024/02/13 01:38:33;;;;;;;8.82;8.00;;;;;;;;;;9904110;28;20047;-78
2024/02/13 01:43:25;;;;;;;9.45;8.55;;;;;;;;;;9904654;28;20135;-78
2024/02/13 01:48:17;;;;;;;9.20;8.32;;;;;;;;;;9904337;28;20147;-78
2024/02/13 01:53:11;;;;;;;11.35;8.57;;;;;;;;;;9892313;28;20047;-81
2024/02/13 01:58:04;;;;;;;9.25;8.40;;;;;;;;;;9885940;28;20127;-79
2024/02/13 02:02:56;;;;;;;11.00;9.88;;;;;;;;;;9904162;28;21060;-80
2024/02/13 02:07:48;;;;;;;10.02;9.02;;;;;;;;;;9903874;28;20165;-79
2024/02/13 02:12:40;;;;;;;10.98;9.05;;;;;;;;;;9892099;28;20039;-80
2024/02/13 02:17:34;;;;;;;8.55;7.75;;;;;;;;;;9909419;28;20051;-79
2024/02/13 02:22:27;;;;;;;12.10;9.73;;;;;;;;;;9911657;28;20045;-80
2024/02/13 02:27:19;;;;;;;10.77;9.57;;;;;;;;;;9910860;28;20050;-80
2024/02/13 02:32:11;;;;;;;12.30;11.07;;;;;;;;;;9910292;28;20126;-80
2024/02/13 02:37:05;;;;;;;11.88;10.68;;;;;;;;;;9909822;28;20142;-79
2024/02/13 02:41:57;;;;;;;14.10;11.25;;;;;;;;;;9911469;28;20058;-80
2024/02/13 02:46:49;;;;;;;11.43;10.30;;;;;;;;;;9909988;28;20105;-77
2024/02/13 02:51:42;;;;;;;11.68;10.55;;;;;;;;;;9910197;28;20051;-78
2024/02/13 02:56:36;;;;;;;11.48;10.38;;;;;;;;;;9909620;28;20057;-78
2024/02/13 03:01:28;;;;;;;13.10;10.50;;;;;;;;;;9909536;28;20059;-78
2024/02/13 03:06:20;;;;;;;12.48;11.27;;;;;;;;;;9910690;28;20138;-78
2024/02/13 03:11:12;;;;;;;12.73;11.52;;;;;;;;;;9908154;28;20043;-78
2024/02/13 03:16:06;;;;;;;14.18;11.40;;;;;;;;;;9909289;28;20071;-78
2024/02/13 03:20:58;;;;;;;14.20;12.50;;;;;;;;;;9909138;28;20138;-78
2024/02/13 03:25:50;;;;;;;13.38;12.07;;;;;;;;;;9896584;28;20078;-78
2024/02/13 03:30:43;;;;;;;13.98;12.57;;;;;;;;;;9906699;28;20047;-78
2024/02/13 03:35:35;;;;;;;17.55;14.23;;;;;;;;;;9907645;28;20399;-78
2024/02/13 03:40:27;;;;;;;20.80;18.40;;;;;;;;;;9907284;28;20733;-79
2024/02/13 03:45:19;;;;;;;28.73;23.33;;;;;;;;;;9907381;28;20051;-78
2024/02/13 03:50:12;;;;;;;29.23;23.38;;;;;;;;;;9906622;28;20123;-78
2024/02/13 03:55:05;;;;;;;27.60;21.73;;;;;;;;;;9906041;28;20087;-78
2024/02/13 03:59:58;;;;;;;26.88;22.88;;;;;;;;;;9911253;28;20146;-78
2024/02/13 04:04:51;;;;;;;30.08;21.02;;;;;;;;;;9915166;28;20039;-78
2024/02/13 04:09:43;;;;;;;27.13;21.05;;;;;;;;;;9906612;28;20051;-78
2024/02/13 04:14:37;;;;;;;31.85;24.15;;;;;;;;;;9907545;28;20129;-78
2024/02/13 04:19:29;;;;;;;37.90;29.80;;;;;;;;;;9906217;28;20126;-78
2024/02/13 04:24:21;;;;;;;37.70;29.73;;;;;;;;;;9914090;28;20051;-78
2024/02/13 04:29:13;;;;;;;35.42;29.40;;;;;;;;;;9906234;28;20055;-78
2024/02/13 04:34:06;;;;;;;40.45;29.67;;;;;;;;;;9905338;28;20672;-78
2024/02/13 04:38:58;;;;;;;37.45;29.38;;;;;;;;;;9904812;28;20431;-78
2024/02/13 04:43:54;;;;;;;41.83;31.70;;;;;;;;;;9905199;28;20082;-79
2024/02/13 04:48:46;;;;;;;38.25;31.73;;;;;;;;;;9905669;28;20058;-78
2024/02/13 04:53:38;;;;;;;40.38;31.50;;;;;;;;;;9904590;28;20051;-78
2024/02/13 04:58:31;;;;;;;36.92;30.08;;;;;;;;;;9905409;28;20047;-78
2024/02/13 05:03:39;;;;;;;41.65;31.90;;;;;;;;;;9903670;28;20054;-79
2024/02/13 05:08:30;;;;;;;42.97;33.45;;;;;;;;;;9905065;28;20098;-78
2024/02/13 05:13:25;;;;;;;39.40;32.47;;;;;;;;;;9904491;28;20061;-78
2024/02/13 05:18:17;;;;;;;40.42;32.83;;;;;;;;;;9887597;28;20058;-79
2024/02/13 05:23:10;;;;;;;39.78;32.40;;;;;;;;;;9903746;28;20051;-78
2024/02/13 05:28:02;;;;;;;41.05;31.92;;;;;;;;;;9904106;28;20057;-79
2024/02/13 05:32:54;;;;;;;36.92;31.10;;;;;;;;;;9905022;28;20046;-78
2024/02/13 05:37:47;;;;;;;37.20;29.27;;;;;;;;;;9904897;28;20087;-78
2024/02/13 05:42:39;;;;;;;39.13;33.15;;;;;;;;;;9903989;28;20173;-79
2024/02/13 05:47:35;;;;;;;41.78;33.13;;;;;;;;;;9903882;28;20047;-79
2024/02/13 05:52:27;;;;;;;41.15;35.35;;;;;;;;;;9900769;28;20074;-79
2024/02/13 05:57:19;;;;;;;47.80;34.00;;;;;;;;;;9912666;28;20050;-77
2024/02/13 06:02:11;;;;;;;41.67;33.17;;;;;;;;;;9910218;28;20384;-78
2024/02/13 06:07:05;;;;;;;47.20;34.72;;;;;;;;;;9921204;28;20082;-78
2024/02/13 06:11:57;;;;;;;44.90;32.33;;;;;;;;;;9946405;28;20043;-78
2024/02/13 06:16:49;;;;;;;39.55;30.40;;;;;;;;;;9947560;28;20082;-78
2024/02/13 06:21:41;;;;;;;44.67;31.52;;;;;;;;;;9946349;28;20054;-78
2024/02/13 06:26:33;;;;;;;41.00;31.60;;;;;;;;;;9947295;28;20070;-78
2024/02/13 06:31:31;;;;;;;38.83;29.77;;;;;;;;;;9926589;28;20046;-79
2024/02/13 06:36:23;;;;;;;37.95;30.15;;;;;;;;;;9948483;28;20042;-73
2024/02/13 06:41:16;;;;;;;34.33;28.33;;;;;;;;;;9945928;28;20496;-73
2024/02/13 06:46:09;;;;;;;32.42;27.50;;;;;;;;;;9945821;28;20113;-73
2024/02/13 06:51:01;;;;;;;32.65;25.92;;;;;;;;;;9944931;28;20573;-73
2024/02/13 06:55:53;;;;;;;34.20;26.02;;;;;;;;;;9914368;28;20050;-73
2024/02/13 07:00:45;;;;;;;32.00;26.48;;;;;;;;;;9908148;28;20055;-73
2024/02/13 07:05:37;;;;;;;32.13;26.85;;;;;;;;;;9909324;28;20141;-76
2024/02/13 07:10:29;;;;;;;32.88;27.95;;;;;;;;;;9909017;28;20047;-76
2024/02/13 07:15:21;;;;;;;32.55;26.40;;;;;;;;;;9906979;28;20469;-76
2024/02/13 07:20:13;;;;;;;32.47;26.85;;;;;;;;;;9904561;28;20055;-75
2024/02/13 07:25:08;;;;;;;31.42;26.25;;;;;;;;;;9905400;28;20039;-76
2024/02/13 07:30:01;;;;;;;32.70;27.63;;;;;;;;;;9907479;28;20582;-76
2024/02/13 07:34:53;;;;;;;32.95;26.63;;;;;;;;;;9895413;28;20051;-76
2024/02/13 07:39:45;;;;;;;27.98;24.05;;;;;;;;;;9908638;28;20124;-77
2024/02/13 07:44:37;;;;;;;30.67;25.52;;;;;;;;;;9908802;28;20106;-75
2024/02/13 07:49:32;;;;;;;32.63;25.70;;;;;;;;;;9890691;28;20059;-76
2024/02/13 07:54:28;;;;;;;30.27;24.48;;;;;;;;;;9906655;28;20055;-76
2024/02/13 07:59:20;;;;;;;26.40;22.88;;;;;;;;;;9908775;28;20038;-76
2024/02/13 08:04:13;;;;;;;25.92;22.98;;;;;;;;;;9907008;28;20130;-76
2024/02/13 08:09:05;;;;;;;27.20;23.77;;;;;;;;;;9905744;28;20054;-76
2024/02/13 08:13:57;;;;;;;27.27;20.20;;;;;;;;;;9906676;28;20252;-76
2024/02/13 08:18:50;;;;;;;25.60;21.27;;;;;;;;;;9906332;28;20097;-77
2024/02/13 08:23:43;;;;;;;26.23;22.33;;;;;;;;;;9906985;28;20470;-77
2024/02/13 08:28:37;;;;;;;26.60;23.58;;;;;;;;;;9905928;28;20445;-77
2024/02/13 08:33:29;;;;;;;34.00;26.60;;;;;;;;;;9905763;28;20811;-76
2024/02/13 08:38:22;;;;;;;28.70;25.05;;;;;;;;;;9907471;28;20039;-76
2024/02/13 08:43:14;;;;;;;33.22;26.42;;;;;;;;;;9905932;28;20047;-77
2024/02/13 08:48:06;;;;;;;31.35;26.45;;;;;;;;;;9906161;28;20043;-77
2024/02/13 08:52:58;;;;;;;33.72;26.83;;;;;;;;;;9904195;28;20399;-77
2024/02/13 08:57:51;;;;;;;33.42;28.02;;;;;;;;;;9906029;28;20053;-77
2024/02/13 09:02:43;;;;;;;33.10;26.55;;;;;;;;;;9905741;28;20497;-76
2024/02/13 09:07:38;;;;;;;32.75;27.00;;;;;;;;;;9905692;28;20427;-77
2024/02/13 09:12:30;;;;;;;37.30;26.40;;;;;;;;;;9904868;28;20098;-77
2024/02/13 09:17:22;;;;;;;32.45;25.33;;;;;;;;;;9905632;28;20049;-77
2024/02/13 09:22:14;;;;;;;28.70;25.00;;;;;;;;;;9905267;28;20047;-77
2024/02/13 09:27:06;;;;;;;30.90;24.95;;;;;;;;;;9913729;28;20058;-77
2024/02/13 09:31:58;;;;;;;34.17;24.90;;;;;;;;;;9912278;28;20054;-77
2024/02/13 09:36:49;;;;;;;27.77;23.88;;;;;;;;;;9912508;28;20338;-77
2024/02/13 09:41:41;;;;;;;29.80;23.30;;;;;;;;;;9913395;28;20067;-76
2024/02/13 09:46:36;;;;;;;35.00;26.50;;;;;;;;;;9912449;28;20082;-77
2024/02/13 09:51:33;;;;;;;28.48;22.88;;;;;;;;;;9913937;28;20047;-77
2024/02/13 09:56:25;;;;;;;29.55;24.23;;;;;;;;;;9912132;28;20047;-77
2024/02/13 10:01:17;;;;;;;24.23;20.23;;;;;;;;;;9912777;28;20404;-77
2024/02/13 10:06:11;;;;;;;27.40;21.35;;;;;;;;;;9910272;28;20043;-76
2024/02/13 10:11:09;;;;;;;26.15;21.55;;;;;;;;;;9911462;28;20075;-76
2024/02/13 10:16:01;;;;;;;26.08;20.05;;;;;;;;;;9894913;28;20055;-77
2024/02/13 10:20:54;;;;;;;29.50;22.92;;;;;;;;;;9911087;28;20086;-76
2024/02/13 10:25:46;;;;;;;30.63;22.73;;;;;;;;;;9910883;28;20467;-77
2024/02/13 10:30:39;;;;;;;29.73;21.70;;;;;;;;;;9910843;28;20047;-76
2024/02/13 10:35:31;;;;;;;30.38;22.95;;;;;;;;;;9909338;28;20123;-76
2024/02/13 10:40:26;;;;;;;31.02;23.48;;;;;;;;;;9910195;28;20475;-76
2024/02/13 10:45:19;;;;;;;27.73;23.73;;;;;;;;;;9910391;28;20568;-77
2024/02/13 10:50:11;;;;;;;30.05;22.60;;;;;;;;;;9895923;28;20055;-77
2024/02/13 10:55:06;;;;;;;34.83;25.50;;;;;;;;;;9893471;28;20384;-76
2024/02/13 10:59:59;;;;;;;31.35;23.13;;;;;;;;;;9910141;28;20514;-77
2024/02/13 11:04:51;;;;;;;33.78;25.15;;;;;;;;;;9891801;28;20055;-76
2024/02/13 11:09:44;;;;;;;29.98;22.88;;;;;;;;;;9908561;28;20102;-76
2024/02/13 11:14:36;;;;;;;34.40;25.20;;;;;;;;;;9909135;28;20059;-77
2024/02/13 11:19:38;;;;;;;34.10;24.88;;;;;;;;;;9908633;28;20554;-76
2024/02/13 11:24:49;;;;;;;35.37;25.37;;;;;;;;;;9909375;28;20055;-76
2024/02/13 11:29:41;;;;;;;30.30;24.05;;;;;;;;;;9908950;28;20137;-77
2024/02/13 11:34:41;;;;;;;31.02;23.73;;;;;;;;;;9891338;28;20136;-76
2024/02/13 11:39:33;;;;;;;34.00;22.75;;;;;;;;;;9909590;28;20063;-76
2024/02/13 11:44:26;;;;;;;27.05;22.25;;;;;;;;;;9908188;28;20043;-75
2024/02/13 11:49:18;;;;;;;27.92;23.10;;;;;;;;;;9898036;28;20039;-76
2024/02/13 11:54:10;;;;;;;25.42;21.42;;;;;;;;;;9907169;28;20067;-76
2024/02/13 11:59:05;;;;;;;28.92;22.73;;;;;;;;;;9891631;28;20047;-75
2024/02/13 12:03:57;;;;;;;27.05;22.45;;;;;;;;;;9907559;28;20607;-76
2024/02/13 12:08:50;;;;;;;29.17;21.25;;;;;;;;;;9907953;28;20517;-76
2024/02/13 12:13:42;;;;;;;25.83;21.05;;;;;;;;;;9906313;28;20047;-76
2024/02/13 12:18:37;;;;;;;24.55;20.05;;;;;;;;;;9905532;28;20087;-74
2024/02/13 12:23:30;;;;;;;24.05;19.27;;;;;;;;;;9906167;28;20057;-74
2024/02/13 12:28:22;;;;;;;24.25;20.92;;;;;;;;;;9906396;28;20047;-74
2024/02/13 12:33:21;;;;;;;26.20;19.55;;;;;;;;;;9906840;28;20571;-74
2024/02/13 12:38:14;;;;;;;23.65;19.10;;;;;;;;;;9905540;28;20125;-76
2024/02/13 12:43:08;;;;;;;23.85;19.15;;;;;;;;;;9905924;28;20077;-75
2024/02/13 12:48:00;;;;;;;24.73;19.52;;;;;;;;;;9906001;28;20039;-75
2024/02/13 12:52:53;;;;;;;28.02;20.27;;;;;;;;;;9904992;28;20043;-75
2024/02/13 12:57:54;;;;;;;27.40;19.08;;;;;;;;;;9905599;28;20781;-75
2024/02/13 13:02:47;;;;;;;26.15;21.13;;;;;;;;;;9905773;28;20055;-75
2024/02/13 13:07:42;;;;;;;21.83;17.75;;;;;;;;;;9905924;28;20332;-75
2024/02/13 13:12:34;;;;;;;25.95;20.98;;;;;;;;;;9905228;28;20054;-75
2024/02/13 13:17:28;;;;;;;23.75;17.55;;;;;;;;;;9906617;28;20142;-76
2024/02/13 13:22:23;;;;;;;24.73;18.13;;;;;;;;;;9904985;28;20051;-75
2024/02/13 13:27:18;;;;;;;27.00;22.27;;;;;;;;;;9904644;28;20363;-75
2024/02/13 13:32:10;;;;;;;24.67;20.73;;;;;;;;;;9904372;28;20043;-75
2024/02/13 13:37:02;;;;;;;21.08;17.80;;;;;;;;;;9904708;28;20543;-75
2024/02/13 13:41:55;;;;;;;23.48;18.13;;;;;;;;;;9912229;28;20054;-76
2024/02/13 13:46:48;;;;;;;22.48;18.23;;;;;;;;;;9905003;28;20129;-76
2024/02/13 13:51:40;;;;;;;25.42;19.23;;;;;;;;;;9918790;28;20477;-76
2024/02/13 13:56:32;;;;;;;26.80;20.63;;;;;;;;;;9907729;28;20055;-76
2024/02/13 14:01:25;;;;;;;21.77;17.77;;;;;;;;;;9910070;28;20573;-76
2024/02/13 14:06:17;;;;;;;23.73;18.02;;;;;;;;;;9906558;28;20732;-77
2024/02/13 14:11:09;;;;;;;22.17;16.75;;;;;;;;;;9909473;28;20047;-76
2024/02/13 14:16:01;;;;;;;19.92;16.45;;;;;;;;;;9893877;28;20047;-76
2024/02/13 14:20:53;;;;;;;21.55;18.33;;;;;;;;;;9909941;28;20063;-77
2024/02/13 14:25:45;;;;;;;21.42;17.30;;;;;;;;;;9910954;28;20046;-76
2024/02/13 14:30:37;;;;;;;20.98;17.90;;;;;;;;;;9909983;28;20470;-76
2024/02/13 14:35:28;;;;;;;25.35;18.23;;;;;;;;;;9893241;28;20082;-75
2024/02/13 14:40:21;;;;;;;24.35;18.00;;;;;;;;;;9909175;28;20057;-75
2024/02/13 14:45:14;;;;;;;25.33;18.83;;;;;;;;;;9909758;28;20043;-78
2024/02/13 14:50:06;;;;;;;22.83;17.65;;;;;;;;;;9909902;28;20460;-76
2024/02/13 14:54:58;;;;;;;22.60;18.20;;;;;;;;;;9909872;28;20055;-76
2024/02/13 14:59:51;;;;;;;21.98;18.30;;;;;;;;;;9909782;28;20156;-76
2024/02/13 15:04:44;;;;;;;24.25;17.52;;;;;;;;;;9908934;28;20047;-75
2024/02/13 15:09:36;;;;;;;21.40;16.20;;;;;;;;;;9909750;28;20058;-76
2024/02/13 15:14:28;;;;;;;21.60;17.23;;;;;;;;;;9908970;28;20430;-76
2024/02/13 15:19:22;;;;;;;22.52;17.58;;;;;;;;;;9908833;28;20063;-76
2024/02/13 15:24:24;;;;;;;22.65;17.52;;;;;;;;;;9908173;28;20130;-76
2024/02/13 15:29:18;;;;;;;21.70;17.70;;;;;;;;;;9908776;28;20061;-76
2024/02/13 15:34:10;;;;;;;20.35;16.17;;;;;;;;;;9909296;28;20109;-75
2024/02/13 15:49:26;;;;;;;20.60;16.90;;;;;;;;;;9907926;28;20049;-76
2024/02/13 15:54:18;;;;;;;22.63;16.85;;;;;;;;;;9907691;28;20051;-75
2024/02/13 15:59:10;;;;;;;25.38;19.58;;;;;;;;;;9907435;28;20091;-76
2024/02/13 16:04:02;;;;;;;26.15;21.13;;;;;;;;;;9907576;28;20043;-75
2024/02/13 16:08:54;;;;;;;20.70;16.17;;;;;;;;;;9908339;28;20419;-76
2024/02/13 16:13:47;;;;;;;22.33;16.08;;;;;;;;;;9907276;28;20451;-76
2024/02/13 16:18:43;;;;;;;19.88;16.35;;;;;;;;;;9906009;28;20070;-75
2024/02/13 16:23:35;;;;;;;29.65;25.42;;;;;;;;;;9905313;28;20379;-75
2024/02/13 16:28:27;;;;;;;27.33;22.20;;;;;;;;;;9905374;28;20169;-77
2024/02/13 16:33:19;;;;;;;27.92;20.70;;;;;;;;;;9904612;28;20057;-76
2024/02/13 16:38:11;;;;;;;30.88;24.30;;;;;;;;;;9905929;28;20055;-76
2024/02/13 16:43:04;;;;;;;45.80;37.55;;;;;;;;;;9904532;28;20505;-75
2024/02/13 16:47:56;;;;;;;35.13;30.45;;;;;;;;;;9903927;28;20055;-76
2024/02/13 16:52:48;;;;;;;54.83;43.88;;;;;;;;;;9904817;28;20126;-75
2024/02/13 16:57:41;;;;;;;73.32;65.93;;;;;;;;;;9904830;28;20120;-76
2024/02/13 17:02:33;;;;;;;23.88;19.80;;;;;;;;;;9903830;28;20367;-76
2024/02/13 17:07:25;;;;;;;24.17;19.77;;;;;;;;;;9904869;28;20051;-75
2024/02/13 17:12:19;;;;;;;24.92;19.00;;;;;;;;;;9909248;28;20059;-74
2024/02/13 17:17:11;;;;;;;26.75;21.20;;;;;;;;;;9852916;28;1523085;-74
2024/02/13 17:22:05;;;;;;;29.67;22.67;;;;;;;;;;9906153;28;20038;-74
2024/02/13 17:26:58;;;;;;;25.17;20.13;;;;;;;;;;9911650;28;20051;-75
2024/02/13 17:31:51;;;;;;;31.13;22.23;;;;;;;;;;9908397;28;20051;-75
2024/02/13 17:36:43;;;;;;;28.75;22.23;;;;;;;;;;9907414;28;20481;-75
2024/02/13 17:41:35;;;;;;;44.35;27.63;;;;;;;;;;9916570;28;20043;-74
2024/02/13 17:46:27;;;;;;;32.90;24.90;;;;;;;;;;9909082;28;20138;-74
2024/02/13 17:51:19;;;;;;;29.38;22.80;;;;;;;;;;9913923;28;20466;-75
2024/02/13 17:56:12;;;;;;;29.30;23.33;;;;;;;;;;9925333;28;20058;-74
2024/02/13 18:01:04;;;;;;;82.68;63.75;;;;;;;;;;9918599;28;20059;-74
2024/02/13 18:05:56;;;;;;;143.07;115.53;;;;;;;;;;9914775;28;20055;-74
2024/02/13 18:10:48;;;;;;;42.45;29.38;;;;;;;;;;9902885;28;20160;-74
2024/02/13 18:15:40;;;;;;;46.17;32.83;;;;;;;;;;9917568;28;20043;-74
2024/02/13 18:20:31;;;;;;;39.10;30.58;;;;;;;;;;9920778;28;20066;-74
2024/02/13 18:25:24;;;;;;;47.70;36.53;;;;;;;;;;9911170;28;20117;-73
2024/02/13 18:30:16;;;;;;;49.75;36.20;;;;;;;;;;9917698;28;20769;-72
2024/02/13 18:35:09;;;;;;;49.92;34.55;;;;;;;;;;9910568;28;20054;-72
2024/02/13 18:40:01;;;;;;;68.38;37.92;;;;;;;;;;9913514;28;20148;-73
2024/02/13 18:44:53;;;;;;;35.08;27.75;;;;;;;;;;9893396;28;20489;-73
2024/02/13 18:49:47;;;;;;;31.02;25.02;;;;;;;;;;9920155;28;20129;-69
2024/02/13 18:54:39;;;;;;;33.20;24.83;;;;;;;;;;9908829;28;20079;-70
2024/02/13 18:59:30;;;;;;;35.28;27.08;;;;;;;;;;9911266;28;20129;-76
2024/02/13 19:04:22;;;;;;;36.45;25.55;;;;;;;;;;9918407;28;20155;-75
2024/02/13 19:09:14;;;;;;;30.85;23.13;;;;;;;;;;9918468;28;20394;-76
2024/02/13 19:14:06;;;;;;;31.25;24.65;;;;;;;;;;9906710;28;20057;-76
2024/02/13 19:19:03;;;;;;;30.83;22.90;;;;;;;;;;9906189;28;20063;-77
2024/02/13 19:23:55;;;;;;;32.15;24.25;;;;;;;;;;9907295;28;20475;-76
2024/02/13 19:28:47;;;;;;;31.13;25.23;;;;;;;;;;9906892;28;20501;-76
2024/02/13 19:33:39;;;;;;;31.80;25.98;;;;;;;;;;9908152;28;20047;-76
2024/02/13 19:38:31;;;;;;;36.33;28.25;;;;;;;;;;9910646;28;20054;-76
2024/02/13 19:43:23;;;;;;;36.33;26.67;;;;;;;;;;9936082;28;20507;-76
2024/02/13 19:48:15;;;;;;;40.70;28.23;;;;;;;;;;9935091;28;20050;-76
2024/02/13 19:53:08;;;;;;;41.35;30.08;;;;;;;;;;9936515;28;21403;-77
2024/02/13 19:58:02;;;;;;;35.78;26.40;;;;;;;;;;9935055;28;20051;-77
2024/02/13 20:02:54;;;;;;;39.95;27.20;;;;;;;;;;9924039;28;20111;-76
2024/02/13 20:07:46;;;;;;;34.42;27.05;;;;;;;;;;9934578;28;20054;-76
2024/02/13 20:12:38;;;;;;;33.17;26.33;;;;;;;;;;9933796;28;20050;-77
2024/02/13 20:17:30;;;;;;;28.98;21.85;;;;;;;;;;9926081;28;20162;-77
2024/02/13 20:22:22;;;;;;;25.80;21.33;;;;;;;;;;9907323;28;20054;-76
2024/02/13 20:27:15;;;;;;;37.67;25.02;;;;;;;;;;9922379;28;20525;-76
2024/02/13 20:32:08;;;;;;;31.20;22.67;;;;;;;;;;9909679;28;20054;-76
2024/02/13 20:37:03;;;;;;;24.42;20.33;;;;;;;;;;9910283;28;20058;-76
2024/02/13 20:41:58;;;;;;;22.73;20.13;;;;;;;;;;9935734;28;20050;-75
2024/02/13 20:46:50;;;;;;;27.50;20.35;;;;;;;;;;9937346;28;20093;-80
2024/02/13 20:51:42;;;;;;;23.85;17.73;;;;;;;;;;9936710;28;20141;-78
2024/02/13 20:56:37;;;;;;;30.45;21.70;;;;;;;;;;9935156;28;20046;-78
2024/02/13 21:01:35;;;;;;;27.80;20.52;;;;;;;;;;9936507;28;20042;-78
2024/02/13 21:06:27;;;;;;;24.15;20.80;;;;;;;;;;9897114;28;20073;-80
2024/02/13 21:11:19;;;;;;;28.65;21.23;;;;;;;;;;9909127;28;20382;-76
2024/02/13 21:16:14;;;;;;;24.77;21.40;;;;;;;;;;9903723;28;20308;-77
2024/02/13 21:26:18;;;;;;;25.33;19.90;;;;;;;;;;9938382;28;20098;-76
2024/02/13 21:31:10;;;;;;;27.70;22.45;;;;;;;;;;9930086;28;20043;-78
2024/02/13 21:36:02;;;;;;;26.60;21.50;;;;;;;;;;9934704;28;20054;-76
2024/02/13 21:40:54;;;;;;;30.02;21.70;;;;;;;;;;9934954;28;20046;-77
2024/02/13 21:45:46;;;;;;;28.55;20.98;;;;;;;;;;9930215;28;20047;-77
2024/02/13 21:50:39;;;;;;;26.02;20.25;;;;;;;;;;9935111;28;20042;-77
2024/02/13 21:55:31;;;;;;;26.45;19.75;;;;;;;;;;9928626;28;20061;-77
2024/02/13 22:00:23;;;;;;;27.85;20.42;;;;;;;;;;9934185;28;20082;-74
2024/02/13 22:05:15;;;;;;;26.17;20.48;;;;;;;;;;9939606;28;20105;-80
2024/02/13 22:10:10;;;;;;;32.08;23.10;;;;;;;;;;9938912;28;20047;-78
2024/02/13 22:15:04;;;;;;;28.55;22.63;;;;;;;;;;9934121;28;20414;-79
2024/02/13 22:19:56;;;;;;;33.13;23.75;;;;;;;;;;9938816;28;20534;-79
2024/02/13 22:24:50;;;;;;;30.73;23.42;;;;;;;;;;9933695;28;20066;-78
2024/02/13 22:29:42;;;;;;;30.38;23.95;;;;;;;;;;9921907;28;20066;-78
2024/02/13 22:34:34;;;;;;;27.58;22.35;;;;;;;;;;9937938;28;20714;-78
2024/02/13 22:39:26;;;;;;;28.35;22.23;;;;;;;;;;9923528;28;20453;-78
2024/02/13 22:44:19;;;;;;;31.40;22.02;;;;;;;;;;9928610;28;20464;-78
2024/02/13 22:49:11;;;;;;;28.45;21.60;;;;;;;;;;9924465;28;20054;-79
2024/02/13 22:54:03;;;;;;;30.50;24.80;;;;;;;;;;9937295;28;20053;-78
2024/02/13 22:58:57;;;;;;;31.10;23.33;;;;;;;;;;9940331;28;20114;-79
2024/02/13 23:03:49;;;;;;;30.90;24.63;;;;;;;;;;9940292;28;20043;-79
2024/02/13 23:08:41;;;;;;;29.33;21.02;;;;;;;;;;9941225;28;20407;-81
2024/02/13 23:13:33;;;;;;;30.17;21.05;;;;;;;;;;9941168;28;20350;-81
2024/02/13 23:18:35;;;;;;;23.10;17.88;;;;;;;;;;9941380;28;20194;-78
2024/02/13 23:23:27;;;;;;;25.90;19.85;;;;;;;;;;9939117;28;20042;-81
2024/02/13 23:28:20;;;;;;;26.25;20.42;;;;;;;;;;9939555;28;20047;-78
2024/02/13 23:33:13;;;;;;;24.92;19.80;;;;;;;;;;9933132;28;20043;-78
2024/02/13 23:38:07;;;;;;;26.75;21.42;;;;;;;;;;9939894;28;20055;-79
2024/02/13 23:43:00;;;;;;;25.98;20.10;;;;;;;;;;9933428;28;20062;-79
2024/02/13 23:47:52;;;;;;;22.52;19.20;;;;;;;;;;9934628;28;20153;-80
2024/02/13 23:52:44;;;;;;;22.77;19.42;;;;;;;;;;9939921;28;20049;-80
2024/02/13 23:57:40;;;;;;;25.73;19.33;;;;;;;;;;9939835;28;20045;-80
